sensor_id;sensor_type;location;lat;lon;timestamp;pressure;altitude;pressure_sealevel;temperature;humidity
30073;BME280;16897;52.422;13.678;2023-04-07T00:03:13;101643.22;;;5.64;44.41
30073;BME280;16897;52.422;13.678;2023-04-07T00:07:14;101614.22;;;5.47;44.39
30073;BME280;16897;52.422;13.678;2023-04-07T00:11:16;101637.47;;;5.51;44.24
30073;BME280;16897;52.422;13.678;2023-04-07T00:15:18;101626.47;;;5.39;44.39
30073;BME280;16897;52.422;13.678;2023-04-07T00:19:19;101630.03;;;5.33;44.30
30073;BME280;16897;52.422;13.678;2023-04-07T00:23:21;101595.88;;;5.14;44.36
30073;BME280;16897;52.422;13.678;2023-04-07T00:27:22;101597.69;;;5.07;44.45
30073;BME280;16897;52.422;13.678;2023-04-07T00:31:24;101608.78;;;5.16;44.53
30073;BME280;16897;52.422;13.678;2023-04-07T00:35:26;101636.19;;;5.26;44.35
30073;BME280;16897;52.422;13.678;2023-04-07T00:39:28;101575.66;;;4.86;44.37
30073;BME280;16897;52.422;13.678;2023-04-07T00:43:30;101630.41;;;5.13;44.29
30073;BME280;16897;52.422;13.678;2023-04-07T00:47:32;101624.53;;;5.03;44.48
30073;BME280;16897;52.422;13.678;2023-04-07T00:51:33;101603.19;;;4.91;44.57
30073;BME280;16897;52.422;13.678;2023-04-07T00:55:35;101628.94;;;5.00;44.58
30073;BME280;16897;52.422;13.678;2023-04-07T00:59:37;101605.81;;;4.89;44.36
30073;BME280;16897;52.422;13.678;2023-04-07T01:03:44;101607.63;;;4.84;44.62
30073;BME280;16897;52.422;13.678;2023-04-07T01:08:14;101613.59;;;4.89;44.60
30073;BME280;16897;52.422;13.678;2023-04-07T01:12:43;101602.50;;;4.81;44.57
30073;BME280;16897;52.422;13.678;2023-04-07T01:16:50;101611.97;;;4.83;44.53
30073;BME280;16897;52.422;13.678;2023-04-07T01:21:02;101603.41;;;4.78;44.72
30073;BME280;16897;52.422;13.678;2023-04-07T01:25:26;101593.97;;;4.74;44.65
30073;BME280;16897;52.422;13.678;2023-04-07T01:29:36;101591.50;;;4.68;44.59
30073;BME280;16897;52.422;13.678;2023-04-07T01:33:43;101578.69;;;4.60;44.70
30073;BME280;16897;52.422;13.678;2023-04-07T01:37:46;101577.00;;;4.59;44.75
30073;BME280;16897;52.422;13.678;2023-04-07T01:41:49;101572.75;;;4.55;44.59
30073;BME280;16897;52.422;13.678;2023-04-07T01:45:53;101572.84;;;4.49;44.77
30073;BME280;16897;52.422;13.678;2023-04-07T01:49:57;101557.63;;;4.32;44.85
30073;BME280;16897;52.422;13.678;2023-04-07T01:54:00;101561.06;;;4.33;44.65
30073;BME280;16897;52.422;13.678;2023-04-07T01:58:05;101587.47;;;4.50;44.83
30073;BME280;16897;52.422;13.678;2023-04-07T02:02:09;101583.25;;;4.46;44.66
30073;BME280;16897;52.422;13.678;2023-04-07T02:06:13;101562.00;;;4.26;44.71
30073;BME280;16897;52.422;13.678;2023-04-07T02:10:20;101580.78;;;4.38;44.86
30073;BME280;16897;52.422;13.678;2023-04-07T02:14:23;101533.84;;;4.09;44.77
30073;BME280;16897;52.422;13.678;2023-04-07T02:18:34;101545.72;;;4.22;44.93
30073;BME280;16897;52.422;13.678;2023-04-07T02:22:38;101549.16;;;4.21;44.92
30073;BME280;16897;52.422;13.678;2023-04-07T02:26:41;101527.06;;;4.02;44.95
30073;BME280;16897;52.422;13.678;2023-04-07T02:30:43;101566.28;;;4.30;45.01
30073;BME280;16897;52.422;13.678;2023-04-07T02:34:44;101555.19;;;4.21;45.03
30073;BME280;16897;52.422;13.678;2023-04-07T02:38:46;101568.88;;;4.28;45.07
30073;BME280;16897;52.422;13.678;2023-04-07T02:42:48;101557.78;;;4.20;45.13
30073;BME280;16897;52.422;13.678;2023-04-07T02:46:50;101564.59;;;4.26;45.03
30073;BME280;16897;52.422;13.678;2023-04-07T02:50:51;101555.28;;;4.15;44.83
30073;BME280;16897;52.422;13.678;2023-04-07T02:54:53;101542.47;;;4.08;44.95
30073;BME280;16897;52.422;13.678;2023-04-07T02:58:59;101559.59;;;4.15;45.26
30073;BME280;16897;52.422;13.678;2023-04-07T03:03:01;101556.09;;;4.17;45.15
30073;BME280;16897;52.422;13.678;2023-04-07T03:07:07;101562.91;;;4.23;45.10
30073;BME280;16897;52.422;13.678;2023-04-07T03:11:08;101541.59;;;4.09;45.14
30073;BME280;16897;52.422;13.678;2023-04-07T03:15:10;101532.13;;;4.08;45.17
30073;BME280;16897;52.422;13.678;2023-04-07T03:19:13;101553.47;;;4.22;45.08
30073;BME280;16897;52.422;13.678;2023-04-07T03:23:19;101549.16;;;4.21;45.33
30073;BME280;16897;52.422;13.678;2023-04-07T03:27:21;101541.50;;;4.16;45.09
30073;BME280;16897;52.422;13.678;2023-04-07T03:31:24;101532.09;;;4.11;45.31
30073;BME280;16897;52.422;13.678;2023-04-07T03:35:27;101521.75;;;4.11;45.33
30073;BME280;16897;52.422;13.678;2023-04-07T03:39:29;101530.31;;;4.16;45.18
30073;BME280;16897;52.422;13.678;2023-04-07T03:43:34;101518.34;;;4.09;45.37
30073;BME280;16897;52.422;13.678;2023-04-07T03:47:36;101474.84;;;3.81;45.32
30073;BME280;16897;52.422;13.678;2023-04-07T03:51:39;101535.47;;;4.16;45.40
30073;BME280;16897;52.422;13.678;2023-04-07T03:55:48;101525.16;;;4.13;45.37
30073;BME280;16897;52.422;13.678;2023-04-07T04:00:12;101531.09;;;4.18;45.33
30073;BME280;16897;52.422;13.678;2023-04-07T04:04:34;101462.84;;;3.77;45.31
30073;BME280;16897;52.422;13.678;2023-04-07T04:08:37;101508.00;;;4.07;45.26
30073;BME280;16897;52.422;13.678;2023-04-07T04:12:39;101536.22;;;4.21;45.34
30073;BME280;16897;52.422;13.678;2023-04-07T04:16:44;101532.84;;;4.19;45.37
30073;BME280;16897;52.422;13.678;2023-04-07T04:20:59;101530.19;;;4.22;45.37
30073;BME280;16897;52.422;13.678;2023-04-07T04:25:03;101536.25;;;4.19;45.37
30073;BME280;16897;52.422;13.678;2023-04-07T04:29:06;101516.66;;;4.06;45.47
30073;BME280;16897;52.422;13.678;2023-04-07T04:33:08;101475.66;;;3.83;45.46
30073;BME280;16897;52.422;13.678;2023-04-07T04:37:36;101543.97;;;4.21;45.29
30073;BME280;16897;52.422;13.678;2023-04-07T04:41:43;101527.75;;;4.13;45.60
30073;BME280;16897;52.422;13.678;2023-04-07T04:45:46;101536.25;;;4.19;45.58
30073;BME280;16897;52.422;13.678;2023-04-07T04:49:50;101524.31;;;4.12;45.54
30073;BME280;16897;52.422;13.678;2023-04-07T04:53:52;101543.19;;;4.19;45.57
30073;BME280;16897;52.422;13.678;2023-04-07T04:57:56;101553.47;;;4.22;45.54
30073;BME280;16897;52.422;13.678;2023-04-07T05:02:08;101552.56;;;4.23;45.45
30073;BME280;16897;52.422;13.678;2023-04-07T05:06:10;101520.13;;;4.04;45.54
30073;BME280;16897;52.422;13.678;2023-04-07T05:10:12;101557.69;;;4.26;45.53
30073;BME280;16897;52.422;13.678;2023-04-07T05:14:20;101550.84;;;4.24;45.71
30073;BME280;16897;52.422;13.678;2023-04-07T05:18:28;101499.53;;;3.99;45.63
30073;BME280;16897;52.422;13.678;2023-04-07T05:22:31;101541.38;;;4.22;45.50
30073;BME280;16897;52.422;13.678;2023-04-07T05:26:33;101526.88;;;4.14;45.66
30073;BME280;16897;52.422;13.678;2023-04-07T05:30:38;101553.41;;;4.27;45.76
30073;BME280;16897;52.422;13.678;2023-04-07T05:34:39;101519.91;;;4.19;45.70
30073;BME280;16897;52.422;13.678;2023-04-07T05:38:41;101513.06;;;4.15;45.57
30073;BME280;16897;52.422;13.678;2023-04-07T05:42:47;101536.09;;;4.30;45.87
30073;BME280;16897;52.422;13.678;2023-04-07T05:46:50;101501.94;;;4.11;45.73
30073;BME280;16897;52.422;13.678;2023-04-07T05:50:53;101500.22;;;4.10;45.76
30073;BME280;16897;52.422;13.678;2023-04-07T05:54:55;101524.03;;;4.29;45.70
30073;BME280;16897;52.422;13.678;2023-04-07T05:58:59;101541.16;;;4.38;45.68
30073;BME280;16897;52.422;13.678;2023-04-07T06:03:02;101557.28;;;4.51;45.90
30073;BME280;16897;52.422;13.678;2023-04-07T06:07:09;101553.00;;;4.50;45.96
30073;BME280;16897;52.422;13.678;2023-04-07T06:11:10;101532.44;;;4.42;45.89
30073;BME280;16897;52.422;13.678;2023-04-07T06:15:12;101544.28;;;4.57;45.91
30073;BME280;16897;52.422;13.678;2023-04-07T06:19:13;101531.47;;;4.48;46.11
30073;BME280;16897;52.422;13.678;2023-04-07T06:23:15;101560.47;;;4.68;45.98
30073;BME280;16897;52.422;13.678;2023-04-07T06:27:16;101541.66;;;4.58;46.05
30073;BME280;16897;52.422;13.678;2023-04-07T06:31:21;101563.63;;;4.84;46.18
30073;BME280;16897;52.422;13.678;2023-04-07T06:35:26;101508.94;;;4.56;46.06
30073;BME280;16897;52.422;13.678;2023-04-07T06:39:29;101562.47;;;5.00;46.23
30073;BME280;16897;52.422;13.678;2023-04-07T06:43:31;101573.56;;;5.07;46.19
30073;BME280;16897;52.422;13.678;2023-04-07T06:47:37;101562.22;;;5.14;46.33
30073;BME280;16897;52.422;13.678;2023-04-07T06:51:38;101569.72;;;5.26;46.13
30073;BME280;16897;52.422;13.678;2023-04-07T06:55:40;101558.53;;;5.26;46.36
30073;BME280;16897;52.422;13.678;2023-04-07T06:59:41;101554.19;;;5.26;46.39
30073;BME280;16897;52.422;13.678;2023-04-07T07:03:43;101540.31;;;5.29;46.43
30073;BME280;16897;52.422;13.678;2023-04-07T07:07:45;101545.97;;;5.48;46.35
30073;BME280;16897;52.422;13.678;2023-04-07T07:11:46;101570.56;;;5.70;46.31
30073;BME280;16897;52.422;13.678;2023-04-07T07:15:49;101555.03;;;5.70;46.45
30073;BME280;16897;52.422;13.678;2023-04-07T07:19:50;101571.91;;;5.88;46.48
30073;BME280;16897;52.422;13.678;2023-04-07T07:23:52;101569.91;;;6.03;46.33
30073;BME280;16897;52.422;13.678;2023-04-07T07:27:54;101584.31;;;6.14;46.53
30073;BME280;16897;52.422;13.678;2023-04-07T07:31:55;101508.00;;;5.86;46.33
30073;BME280;16897;52.422;13.678;2023-04-07T07:35:57;101576.97;;;6.32;46.50
30073;BME280;16897;52.422;13.678;2023-04-07T07:39:58;101552.03;;;6.26;46.40
30073;BME280;16897;52.422;13.678;2023-04-07T07:44:00;101561.25;;;6.39;46.47
30073;BME280;16897;52.422;13.678;2023-04-07T07:48:01;101573.84;;;6.55;46.53
30073;BME280;16897;52.422;13.678;2023-04-07T07:52:03;101593.34;;;6.70;46.40
30073;BME280;16897;52.422;13.678;2023-04-07T07:56:04;101593.13;;;6.79;46.39
30073;BME280;16897;52.422;13.678;2023-04-07T08:00:06;101566.44;;;6.74;46.61
30073;BME280;16897;52.422;13.678;2023-04-07T08:04:14;101540.75;;;6.64;46.66
30073;BME280;16897;52.422;13.678;2023-04-07T08:08:16;101583.78;;;7.06;46.67
30073;BME280;16897;52.422;13.678;2023-04-07T08:19:10;101582.06;;;7.38;46.47
30073;BME280;16897;52.422;13.678;2023-04-07T08:23:12;101577.44;;;7.47;46.53
30073;BME280;16897;52.422;13.678;2023-04-07T08:27:14;101578.84;;;7.59;46.50
30073;BME280;16897;52.422;13.678;2023-04-07T08:31:15;101564.75;;;7.66;46.55
30073;BME280;16897;52.422;13.678;2023-04-07T08:35:16;101588.44;;;7.85;46.44
30073;BME280;16897;52.422;13.678;2023-04-07T08:39:18;101574.59;;;7.85;46.60
30073;BME280;16897;52.422;13.678;2023-04-07T08:43:19;101576.03;;;7.95;46.58
30073;BME280;16897;52.422;13.678;2023-04-07T08:47:21;101589.44;;;8.11;46.48
30073;BME280;16897;52.422;13.678;2023-04-07T08:51:28;101572.16;;;8.08;46.54
30073;BME280;16897;52.422;13.678;2023-04-07T08:55:33;101580.50;;;8.18;46.59
30073;BME280;16897;52.422;13.678;2023-04-07T08:59:35;101593.16;;;8.30;46.55
30073;BME280;16897;52.422;13.678;2023-04-07T09:03:37;101582.75;;;8.30;46.64
30073;BME280;16897;52.422;13.678;2023-04-07T09:07:39;101562.31;;;8.18;46.36
30073;BME280;16897;52.422;13.678;2023-04-07T09:11:41;101586.84;;;8.37;46.45
30073;BME280;16897;52.422;13.678;2023-04-07T09:15:42;101594.44;;;8.45;46.43
30073;BME280;16897;52.422;13.678;2023-04-07T09:19:43;101567.03;;;8.33;46.27
30073;BME280;16897;52.422;13.678;2023-04-07T09:23:45;101578.25;;;8.35;46.30
30073;BME280;16897;52.422;13.678;2023-04-07T09:31:55;101585.13;;;8.36;46.21
30073;BME280;16897;52.422;13.678;2023-04-07T09:35:57;101585.09;;;8.38;46.26
30073;BME280;16897;52.422;13.678;2023-04-07T09:39:59;101576.59;;;8.33;46.33
30073;BME280;16897;52.422;13.678;2023-04-07T09:44:01;101606.16;;;8.58;46.19
30073;BME280;16897;52.422;13.678;2023-04-07T09:48:07;101607.09;;;8.56;46.25
30073;BME280;16897;52.422;13.678;2023-04-07T09:52:08;101581.47;;;8.44;46.22
30073;BME280;16897;52.422;13.678;2023-04-07T09:56:11;101610.47;;;8.59;46.20
30073;BME280;16897;52.422;13.678;2023-04-07T10:00:13;101596.75;;;8.54;45.98
30073;BME280;16897;52.422;13.678;2023-04-07T10:04:14;101602.81;;;8.55;45.99
30073;BME280;16897;52.422;13.678;2023-04-07T10:08:17;101617.25;;;8.63;46.02
30073;BME280;16897;52.422;13.678;2023-04-07T10:12:19;101602.00;;;8.53;46.08
30073;BME280;16897;52.422;13.678;2023-04-07T10:16:20;101624.78;;;8.73;46.18
30073;BME280;16897;52.422;13.678;2023-04-07T10:20:23;101606.84;;;8.63;46.03
30073;BME280;16897;52.422;13.678;2023-04-07T10:28:26;101604.13;;;8.67;46.15
30073;BME280;16897;52.422;13.678;2023-04-07T10:32:29;101599.84;;;8.66;46.17
30073;BME280;16897;52.422;13.678;2023-04-07T10:36:31;101612.38;;;8.81;46.05
30073;BME280;16897;52.422;13.678;2023-04-07T10:40:34;101619.16;;;8.85;45.82
30073;BME280;16897;52.422;13.678;2023-04-07T10:48:42;101596.75;;;8.81;46.14
30073;BME280;16897;52.422;13.678;2023-04-07T10:53:08;101571.25;;;8.64;45.82
30073;BME280;16897;52.422;13.678;2023-04-07T10:57:12;101620.41;;;9.00;45.84
30073;BME280;16897;52.422;13.678;2023-04-07T11:05:20;101609.16;;;8.99;45.81
30073;BME280;16897;52.422;13.678;2023-04-07T11:09:23;101607.41;;;8.98;45.96
30073;BME280;16897;52.422;13.678;2023-04-07T11:13:25;101600.56;;;8.96;45.75
30073;BME280;16897;52.422;13.678;2023-04-07T11:17:27;101583.53;;;8.85;45.99
30073;BME280;16897;52.422;13.678;2023-04-07T11:21:29;101581.88;;;8.83;45.85
30073;BME280;16897;52.422;13.678;2023-04-07T11:25:30;101603.97;;;8.98;45.85
30073;BME280;16897;52.422;13.678;2023-04-07T11:29:33;101611.75;;;8.99;45.83
30073;BME280;16897;52.422;13.678;2023-04-07T11:33:35;101616.88;;;9.01;46.01
30073;BME280;16897;52.422;13.678;2023-04-07T11:37:39;101621.13;;;9.03;45.88
30073;BME280;16897;52.422;13.678;2023-04-07T11:41:48;101625.50;;;9.03;45.87
30073;BME280;16897;52.422;13.678;2023-04-07T11:46:22;101623.75;;;9.03;45.87
30073;BME280;16897;52.422;13.678;2023-04-07T11:50:39;101605.78;;;8.96;46.03
30073;BME280;16897;52.422;13.678;2023-04-07T11:54:45;101605.88;;;8.93;45.94
30073;BME280;16897;52.422;13.678;2023-04-07T11:58:48;101600.28;;;8.78;46.21
30073;BME280;16897;52.422;13.678;2023-04-07T12:02:50;101603.59;;;8.83;46.18
30073;BME280;16897;52.422;13.678;2023-04-07T12:06:52;101597.63;;;8.80;46.04
30073;BME280;16897;52.422;13.678;2023-04-07T12:11:02;101605.19;;;8.88;46.26
30073;BME280;16897;52.422;13.678;2023-04-07T12:15:05;101591.69;;;8.76;46.13
30073;BME280;16897;52.422;13.678;2023-04-07T12:19:06;101622.56;;;8.87;46.31
30073;BME280;16897;52.422;13.678;2023-04-07T12:23:08;101619.25;;;8.82;46.50
30073;BME280;16897;52.422;13.678;2023-04-07T12:27:09;101611.53;;;8.80;46.30
30073;BME280;16897;52.422;13.678;2023-04-07T12:31:11;101615.72;;;8.84;46.38
30073;BME280;16897;52.422;13.678;2023-04-07T12:35:13;101589.31;;;8.69;46.29
30073;BME280;16897;52.422;13.678;2023-04-07T12:39:14;101533.06;;;8.38;46.30
30073;BME280;16897;52.422;13.678;2023-04-07T12:43:16;101585.78;;;8.71;46.36
30073;BME280;16897;52.422;13.678;2023-04-07T12:47:18;101604.47;;;8.82;46.32
30073;BME280;16897;52.422;13.678;2023-04-07T12:51:19;101592.63;;;8.74;46.28
30073;BME280;16897;52.422;13.678;2023-04-07T12:55:21;101595.19;;;8.75;46.59
30073;BME280;16897;52.422;13.678;2023-04-07T12:59:23;101577.31;;;8.64;46.53
30073;BME280;16897;52.422;13.678;2023-04-07T13:03:24;101580.72;;;8.67;46.56
30073;BME280;16897;52.422;13.678;2023-04-07T13:07:26;101601.03;;;8.82;46.68
30073;BME280;16897;52.422;13.678;2023-04-07T13:11:28;101607.94;;;8.83;46.77
30073;BME280;16897;52.422;13.678;2023-04-07T13:15:29;101565.28;;;8.60;46.75
30073;BME280;16897;52.422;13.678;2023-04-07T13:19:31;101543.19;;;8.47;46.68
30073;BME280;16897;52.422;13.678;2023-04-07T13:23:33;101604.34;;;8.87;46.76
30073;BME280;16897;52.422;13.678;2023-04-07T13:27:34;101602.56;;;8.88;46.69
30073;BME280;16897;52.422;13.678;2023-04-07T13:31:36;101584.88;;;8.72;46.64
30073;BME280;16897;52.422;13.678;2023-04-07T13:35:38;101594.97;;;8.81;46.63
30073;BME280;16897;52.422;13.678;2023-04-07T13:39:39;101602.69;;;8.84;46.66
30073;BME280;16897;52.422;13.678;2023-04-07T13:43:41;101594.13;;;8.81;46.74
30073;BME280;16897;52.422;13.678;2023-04-07T13:47:43;101587.16;;;8.81;46.74
30073;BME280;16897;52.422;13.678;2023-04-07T13:51:45;101584.56;;;8.81;46.85
30073;BME280;16897;52.422;13.678;2023-04-07T13:55:47;101580.28;;;8.80;46.88
30073;BME280;16897;52.422;13.678;2023-04-07T13:59:49;101592.22;;;8.86;46.95
30073;BME280;16897;52.422;13.678;2023-04-07T14:03:54;101570.81;;;8.78;46.80
30073;BME280;16897;52.422;13.678;2023-04-07T14:07:56;101570.69;;;8.81;47.02
30073;BME280;16897;52.422;13.678;2023-04-07T14:11:57;101565.47;;;8.81;47.04
30073;BME280;16897;52.422;13.678;2023-04-07T14:15:59;101588.56;;;8.92;46.95
30073;BME280;16897;52.422;13.678;2023-04-07T14:20:01;101562.88;;;8.81;47.10
30073;BME280;16897;52.422;13.678;2023-04-07T14:24:05;101576.31;;;8.94;46.99
30073;BME280;16897;52.422;13.678;2023-04-07T14:28:07;101565.97;;;8.92;46.81
30073;BME280;16897;52.422;13.678;2023-04-07T14:32:09;101568.59;;;8.91;46.94
30073;BME280;16897;52.422;13.678;2023-04-07T14:36:13;101549.91;;;8.79;46.90
30073;BME280;16897;52.422;13.678;2023-04-07T14:40:15;101554.88;;;8.85;47.06
30073;BME280;16897;52.422;13.678;2023-04-07T14:44:17;101565.00;;;8.95;47.01
30073;BME280;16897;52.422;13.678;2023-04-07T14:48:18;101558.06;;;8.94;46.96
30073;BME280;16897;52.422;13.678;2023-04-07T14:52:20;101523.97;;;8.76;47.21
30073;BME280;16897;52.422;13.678;2023-04-07T14:56:24;101574.97;;;9.07;47.06
30073;BME280;16897;52.422;13.678;2023-04-07T15:00:26;101570.09;;;8.98;46.96
30073;BME280;16897;52.422;13.678;2023-04-07T15:04:28;101579.41;;;9.05;47.20
30073;BME280;16897;52.422;13.678;2023-04-07T15:08:30;101581.84;;;9.09;47.07
30073;BME280;16897;52.422;13.678;2023-04-07T15:12:31;101581.78;;;9.11;47.10
30073;BME280;16897;52.422;13.678;2023-04-07T15:16:33;101560.41;;;9.01;47.14
30073;BME280;16897;52.422;13.678;2023-04-07T15:20:35;101566.53;;;9.00;47.11
30073;BME280;16897;52.422;13.678;2023-04-07T15:24:36;101567.34;;;9.02;47.24
30073;BME280;16897;52.422;13.678;2023-04-07T15:28:38;101576.59;;;9.11;47.28
30073;BME280;16897;52.422;13.678;2023-04-07T15:32:40;101590.19;;;9.19;47.19
30073;BME280;16897;52.422;13.678;2023-04-07T15:36:42;101573.88;;;9.14;47.18
30073;BME280;16897;52.422;13.678;2023-04-07T15:40:43;101561.00;;;9.09;47.26
30073;BME280;16897;52.422;13.678;2023-04-07T15:44:45;101570.19;;;9.20;47.25
30073;BME280;16897;52.422;13.678;2023-04-07T15:48:47;101586.47;;;9.26;47.34
30073;BME280;16897;52.422;13.678;2023-04-07T15:52:48;101571.00;;;9.22;47.42
30073;BME280;16897;52.422;13.678;2023-04-07T15:56:50;101574.34;;;9.25;47.33
30073;BME280;16897;52.422;13.678;2023-04-07T16:00:52;101542.03;;;9.06;47.48
30073;BME280;16897;52.422;13.678;2023-04-07T16:04:54;101588.84;;;9.33;47.41
30073;BME280;16897;52.422;13.678;2023-04-07T16:08:55;101585.41;;;9.32;47.44
30073;BME280;16897;52.422;13.678;2023-04-07T16:12:57;101585.53;;;9.29;47.47
30073;BME280;16897;52.422;13.678;2023-04-07T16:16:58;101571.81;;;9.24;47.63
30073;BME280;16897;52.422;13.678;2023-04-07T16:21:00;101552.22;;;9.12;47.65
30073;BME280;16897;52.422;13.678;2023-04-07T16:25:02;101582.78;;;9.32;47.56
30073;BME280;16897;52.422;13.678;2023-04-07T16:29:04;101553.06;;;9.13;47.56
30073;BME280;16897;52.422;13.678;2023-04-07T16:33:06;101581.84;;;9.35;47.49
30073;BME280;16897;52.422;13.678;2023-04-07T16:37:07;101567.31;;;9.27;47.61
30073;BME280;16897;52.422;13.678;2023-04-07T16:41:09;101570.59;;;9.33;47.67
30073;BME280;16897;52.422;13.678;2023-04-07T16:45:10;101565.50;;;9.29;47.65
30073;BME280;16897;52.422;13.678;2023-04-07T16:49:12;101574.75;;;9.38;47.67
30073;BME280;16897;52.422;13.678;2023-04-07T16:53:13;101571.41;;;9.35;47.74
30073;BME280;16897;52.422;13.678;2023-04-07T16:57:15;101569.56;;;9.37;47.61
30073;BME280;16897;52.422;13.678;2023-04-07T17:01:17;101579.72;;;9.44;47.63
30073;BME280;16897;52.422;13.678;2023-04-07T17:05:18;101585.06;;;9.41;47.59
30073;BME280;16897;52.422;13.678;2023-04-07T17:09:20;101581.53;;;9.42;47.61
30073;BME280;16897;52.422;13.678;2023-04-07T17:13:22;101595.31;;;9.46;47.75
30073;BME280;16897;52.422;13.678;2023-04-07T17:17:23;101577.50;;;9.34;47.69
30073;BME280;16897;52.422;13.678;2023-04-07T17:21:25;101586.97;;;9.36;47.67
30073;BME280;16897;52.422;13.678;2023-04-07T17:25:26;101599.75;;;9.44;47.82
30073;BME280;16897;52.422;13.678;2023-04-07T17:29:28;101608.41;;;9.44;47.72
30073;BME280;16897;52.422;13.678;2023-04-07T17:33:31;101591.38;;;9.34;47.69
30073;BME280;16897;52.422;13.678;2023-04-07T17:37:34;101609.31;;;9.43;47.85
30073;BME280;16897;52.422;13.678;2023-04-07T17:41:36;101600.81;;;9.38;47.92
30073;BME280;16897;52.422;13.678;2023-04-07T17:45:38;101616.22;;;9.44;47.84
30073;BME280;16897;52.422;13.678;2023-04-07T17:49:39;101620.59;;;9.44;48.03
30073;BME280;16897;52.422;13.678;2023-04-07T17:53:42;101609.47;;;9.39;47.87
30073;BME280;16897;52.422;13.678;2023-04-07T17:57:44;101629.16;;;9.47;47.93
30073;BME280;16897;52.422;13.678;2023-04-07T18:01:46;101617.06;;;9.45;47.87
30073;BME280;16897;52.422;13.678;2023-04-07T18:05:47;101618.91;;;9.43;48.06
30073;BME280;16897;52.422;13.678;2023-04-07T18:09:49;101580.63;;;9.20;47.87
30073;BME280;16897;52.422;13.678;2023-04-07T18:13:50;101613.88;;;9.37;47.93
30073;BME280;16897;52.422;13.678;2023-04-07T18:17:52;101622.50;;;9.39;47.93
30073;BME280;16897;52.422;13.678;2023-04-07T18:21:55;101634.34;;;9.47;48.11
30073;BME280;16897;52.422;13.678;2023-04-07T18:25:57;101603.00;;;9.25;48.06
30073;BME280;16897;52.422;13.678;2023-04-07T18:29:58;101615.72;;;9.35;48.14
30073;BME280;16897;52.422;13.678;2023-04-07T18:34:00;101579.59;;;8.99;48.18
30073;BME280;16897;52.422;13.678;2023-04-07T18:38:01;101667.19;;;9.53;48.09
30073;BME280;16897;52.422;13.678;2023-04-07T18:42:04;101652.00;;;9.41;47.99
30073;BME280;16897;52.422;13.678;2023-04-07T18:46:06;101670.94;;;9.46;48.12
30073;BME280;16897;52.422;13.678;2023-04-07T18:50:08;101672.72;;;9.44;48.19
30073;BME280;16897;52.422;13.678;2023-04-07T18:54:10;101636.19;;;9.20;48.01
30073;BME280;16897;52.422;13.678;2023-04-07T18:58:13;101652.63;;;9.22;48.15
30073;BME280;16897;52.422;13.678;2023-04-07T19:02:14;101672.31;;;9.31;48.35
30073;BME280;16897;52.422;13.678;2023-04-07T19:06:16;101672.19;;;9.34;48.11
30073;BME280;16897;52.422;13.678;2023-04-07T19:10:18;101681.59;;;9.40;48.12
30073;BME280;16897;52.422;13.678;2023-04-07T19:14:19;101690.94;;;9.45;48.15
30073;BME280;16897;52.422;13.678;2023-04-07T19:18:21;101686.69;;;9.43;48.23
30073;BME280;16897;52.422;13.678;2023-04-07T19:22:23;101684.19;;;9.40;48.21
30073;BME280;16897;52.422;13.678;2023-04-07T19:26:25;101671.47;;;9.30;48.26
30073;BME280;16897;52.422;13.678;2023-04-07T19:30:28;101690.19;;;9.42;48.28
30073;BME280;16897;52.422;13.678;2023-04-07T19:34:29;101677.41;;;9.34;48.32
30073;BME280;16897;52.422;13.678;2023-04-07T19:38:31;101673.81;;;9.38;48.24
30073;BME280;16897;52.422;13.678;2023-04-07T19:42:33;101681.59;;;9.40;48.37
30073;BME280;16897;52.422;13.678;2023-04-07T19:46:35;101672.97;;;9.38;48.28
30073;BME280;16897;52.422;13.678;2023-04-07T19:50:36;101677.09;;;9.43;48.44
30073;BME280;16897;52.422;13.678;2023-04-07T19:54:43;101661.75;;;9.34;48.51
30073;BME280;16897;52.422;13.678;2023-04-07T19:58:45;101677.31;;;9.37;48.39
30073;BME280;16897;52.422;13.678;2023-04-07T20:02:46;101691.03;;;9.42;48.27
30073;BME280;16897;52.422;13.678;2023-04-07T20:06:48;101650.94;;;9.21;48.61
30073;BME280;16897;52.422;13.678;2023-04-07T20:10:50;101635.31;;;9.21;48.37
30073;BME280;16897;52.422;13.678;2023-04-07T20:14:52;101642.16;;;9.24;48.50
30073;BME280;16897;52.422;13.678;2023-04-07T20:18:54;101675.50;;;9.39;48.46
30073;BME280;16897;52.422;13.678;2023-04-07T20:22:55;101652.53;;;9.25;48.56
30073;BME280;16897;52.422;13.678;2023-04-07T20:26:57;101674.88;;;9.33;48.62
30073;BME280;16897;52.422;13.678;2023-04-07T20:30:58;101668.22;;;9.24;48.62
30073;BME280;16897;52.422;13.678;2023-04-07T20:35:02;101693.03;;;9.34;48.58
30073;BME280;16897;52.422;13.678;2023-04-07T20:39:03;101686.13;;;9.33;48.63
30073;BME280;16897;52.422;13.678;2023-04-07T20:43:05;101635.84;;;9.04;48.65
30073;BME280;16897;52.422;13.678;2023-04-07T20:47:10;101675.09;;;9.26;48.56
30073;BME280;16897;52.422;13.678;2023-04-07T20:51:12;101683.75;;;9.27;48.53
30073;BME280;16897;52.422;13.678;2023-04-07T20:55:13;101687.94;;;9.31;48.67
30073;BME280;16897;52.422;13.678;2023-04-07T20:59:15;101664.84;;;9.20;48.33
30073;BME280;16897;52.422;13.678;2023-04-07T21:03:17;101693.22;;;9.29;48.69
30073;BME280;16897;52.422;13.678;2023-04-07T21:07:18;101685.59;;;9.23;48.60
30073;BME280;16897;52.422;13.678;2023-04-07T21:11:20;101697.63;;;9.27;48.76
30073;BME280;16897;52.422;13.678;2023-04-07T21:15:22;101686.41;;;9.25;48.71
30073;BME280;16897;52.422;13.678;2023-04-07T21:19:24;101692.44;;;9.26;48.68
30073;BME280;16897;52.422;13.678;2023-04-07T21:23:25;101690.88;;;9.22;48.82
30073;BME280;16897;52.422;13.678;2023-04-07T21:27:28;101699.44;;;9.25;48.77
30073;BME280;16897;52.422;13.678;2023-04-07T21:31:31;101643.38;;;8.89;48.83
30073;BME280;16897;52.422;13.678;2023-04-07T21:35:32;101663.06;;;8.96;48.79